Wing, Alabama
Current Conditions -  °F | °C
As of 5:58 AM on Sunday 21 Dec 2014 (Local Time) from K0J4 Reporting Station
Overcast Overcast  
Wind Chill: 12°   Ceiling: 1900
Heat Index: 12°   Visibility: 9mi
Dew Point: 10°   Wind: 6mph
Humidity: 86%   Direction: 30°NNE
Pressure: 30.13"   Gusts: NA
Location:  31.03°N, 86.61°W
Report Text: K0J4 211158Z AUTO 03005KT 9SM OVC019 12/10 A3013 RMK AO2 SLP201 70001 T01220100 10122 20111 53001 $
Loading
Personal Weather Stations






























Interactive Weather Map New forecast layout! Learn more

10-Day Weather Forecast

Advertisements
Track Severe Weather on mobile